Time;durP1;ratioP1;P1;durP2;ratioP2;P2;SDS_P1;SDS_P2;PMS_P1;PMS_P2;Temp;Humidity;BMP_temperature;BMP_pressure;BME280_temperature;BME280_humidity;BME280_pressure;Samples;Min_cycle;Max_cycle;Signal;HPM_P1;HPM_P2
2021/11/30 00:00:50;;;;;;;24.90;13.23;;;2.90;99.90;;;;;;5071177;28;20678;-76
2021/11/30 00:03:18;;;;;;;28.90;14.77;;;2.90;99.90;;;;;;5072090;28;20648;-76
2021/11/30 00:05:46;;;;;;;28.43;14.60;;;3.10;99.90;;;;;;5073352;28;20238;-76
2021/11/30 00:08:13;;;;;;;27.50;14.53;;;3.10;99.90;;;;;;5076804;28;20202;-76
2021/11/30 00:10:44;;;;;;;28.07;14.63;;;3.10;99.90;;;;;;5076110;28;20223;-76
2021/11/30 00:13:12;;;;;;;29.87;16.27;;;3.10;99.90;;;;;;5078424;28;20263;-76
2021/11/30 00:15:39;;;;;;;31.10;15.27;;;3.20;99.90;;;;;;5072225;28;20229;-76
2021/11/30 00:18:06;;;;;;;29.83;16.23;;;3.30;99.90;;;;;;5073460;28;20209;-76
2021/11/30 00:20:34;;;;;;;29.73;14.17;;;3.30;99.90;;;;;;5073184;28;20213;-77
2021/11/30 00:23:01;;;;;;;32.30;17.13;;;3.40;99.90;;;;;;5075348;28;20664;-76
2021/11/30 00:25:28;;;;;;;31.27;16.40;;;3.50;99.90;;;;;;5075210;28;20214;-76
2021/11/30 00:27:55;;;;;;;27.73;15.40;;;3.50;99.90;;;;;;5074726;28;20669;-76
2021/11/30 00:30:22;;;;;;;29.53;15.70;;;3.60;99.90;;;;;;5071281;28;20202;-76
2021/11/30 00:32:49;;;;;;;30.97;16.33;;;3.60;99.90;;;;;;5073437;28;20194;-76
2021/11/30 00:35:16;;;;;;;29.77;16.00;;;3.60;99.90;;;;;;5071236;28;20213;-76
2021/11/30 00:37:45;;;;;;;30.73;16.50;;;3.60;99.90;;;;;;5070976;28;20384;-76
2021/11/30 00:40:12;;;;;;;32.50;16.47;;;3.70;99.90;;;;;;5073986;28;20217;-76
2021/11/30 00:42:39;;;;;;;31.57;17.43;;;3.70;99.90;;;;;;5073564;28;20211;-76
2021/11/30 00:45:09;;;;;;;32.27;17.83;;;3.70;99.90;;;;;;5075058;28;20289;-76
2021/11/30 00:47:44;;;;;;;30.70;16.10;;;3.70;99.90;;;;;;5071061;28;20222;-76
2021/11/30 00:50:12;;;;;;;35.80;17.53;;;3.70;99.90;;;;;;5072387;28;20194;-76
2021/11/30 00:52:39;;;;;;;30.27;17.40;;;3.70;99.90;;;;;;5072554;28;20198;-76
2021/11/30 00:55:08;;;;;;;34.93;17.33;;;3.70;99.90;;;;;;5072484;28;20206;-76
2021/11/30 00:57:39;;;;;;;33.87;17.70;;;3.70;99.90;;;;;;5071721;28;20202;-76
2021/11/30 01:00:07;;;;;;;37.67;21.47;;;3.70;99.90;;;;;;5066996;28;20564;-76
2021/11/30 01:02:34;;;;;;;42.57;19.93;;;3.80;99.90;;;;;;5071319;28;20233;-76
2021/11/30 01:05:01;;;;;;;35.63;19.17;;;3.80;99.90;;;;;;5070708;28;20576;-76
2021/11/30 01:07:28;;;;;;;36.37;19.00;;;3.80;99.90;;;;;;5073497;28;20215;-76
2021/11/30 01:09:55;;;;;;;36.07;19.40;;;3.80;99.90;;;;;;5072311;28;20971;-76
2021/11/30 01:12:23;;;;;;;35.80;19.80;;;3.80;99.90;;;;;;5072211;28;20202;-76
2021/11/30 01:14:50;;;;;;;36.83;19.83;;;3.80;99.90;;;;;;5077307;28;20577;-76
2021/11/30 01:17:17;;;;;;;36.27;19.63;;;3.80;99.90;;;;;;5071098;28;20197;-76
2021/11/30 01:19:44;;;;;;;34.40;19.43;;;3.80;99.90;;;;;;5069374;28;20202;-76
2021/11/30 01:22:11;;;;;;;34.37;18.43;;;3.80;99.90;;;;;;5071517;28;20194;-76
2021/11/30 01:24:38;;;;;;;35.40;18.70;;;3.80;99.90;;;;;;5077105;28;20201;-76
2021/11/30 01:27:05;;;;;;;39.13;20.13;;;3.80;99.90;;;;;;5073592;28;20218;-76
2021/11/30 01:29:33;;;;;;;35.07;19.10;;;3.90;99.90;;;;;;5078663;28;20213;-76
2021/11/30 01:32:00;;;;;;;31.87;18.57;;;4.00;99.90;;;;;;5069617;28;20202;-76
2021/11/30 01:34:27;;;;;;;33.77;17.80;;;4.00;99.90;;;;;;5071189;28;20225;-76
2021/11/30 01:36:55;;;;;;;31.53;17.00;;;4.00;99.90;;;;;;5071014;28;22043;-76
2021/11/30 01:39:22;;;;;;;35.97;18.37;;;4.00;99.90;;;;;;5072345;28;20710;-76
2021/11/30 01:41:49;;;;;;;32.57;17.40;;;4.10;99.90;;;;;;5072062;28;20212;-76
2021/11/30 01:44:29;;;;;;;35.13;18.67;;;4.10;99.90;;;;;;5073708;28;20194;-76
2021/11/30 01:47:07;;;;;;;33.87;18.17;;;4.10;99.90;;;;;;5074942;28;20232;-76
2021/11/30 01:49:35;;;;;;;35.80;18.03;;;4.10;99.90;;;;;;5070525;28;20660;-76
2021/11/30 01:52:02;;;;;;;34.13;17.40;;;4.20;99.90;;;;;;5071098;28;20256;-76
2021/11/30 01:54:29;;;;;;;34.63;18.03;;;4.20;99.90;;;;;;5070798;28;20201;-76
2021/11/30 01:56:58;;;;;;;34.63;16.70;;;4.20;99.90;;;;;;5071905;28;20199;-76
2021/11/30 01:59:26;;;;;;;31.07;16.13;;;4.20;99.90;;;;;;5073349;28;20207;-76
2021/11/30 02:01:53;;;;;;;28.27;15.23;;;4.20;99.90;;;;;;5072165;28;20212;-76
2021/11/30 02:04:21;;;;;;;28.13;15.40;;;4.30;99.90;;;;;;5069442;28;20210;-76
2021/11/30 02:06:48;;;;;;;28.03;13.73;;;4.40;99.90;;;;;;5071501;28;20709;-76
2021/11/30 02:09:15;;;;;;;25.80;13.83;;;4.50;99.90;;;;;;5071845;28;20208;-76
2021/11/30 02:11:42;;;;;;;23.77;13.23;;;4.50;99.90;;;;;;5071801;28;20534;-76
2021/11/30 02:14:09;;;;;;;26.90;13.93;;;4.50;99.90;;;;;;5075533;28;20594;-76
2021/11/30 02:16:36;;;;;;;23.83;13.07;;;4.50;99.90;;;;;;5072543;28;20210;-76
2021/11/30 02:19:04;;;;;;;23.20;13.30;;;4.60;99.90;;;;;;5069922;28;20581;-76
2021/11/30 02:21:36;;;;;;;25.40;14.33;;;4.50;99.90;;;;;;5069678;28;20217;-76
2021/11/30 02:24:03;;;;;;;23.00;12.60;;;4.60;99.90;;;;;;5071747;28;20194;-76
2021/11/30 02:26:33;;;;;;;19.67;10.20;;;4.60;99.90;;;;;;5071247;28;20229;-76
2021/11/30 02:29:02;;;;;;;14.67;7.40;;;4.50;99.90;;;;;;5072664;28;20202;-76
2021/11/30 02:31:31;;;;;;;11.50;6.10;;;4.50;99.90;;;;;;5068954;28;20523;-75
2021/11/30 02:33:58;;;;;;;9.63;5.63;;;4.30;99.90;;;;;;5070095;28;20202;-76
2021/11/30 02:36:29;;;;;;;10.13;5.70;;;4.20;99.90;;;;;;5070121;28;20191;-76
2021/11/30 02:39:00;;;;;;;9.83;6.10;;;4.10;99.90;;;;;;5070767;28;20206;-76
2021/11/30 02:41:27;;;;;;;11.40;6.63;;;4.10;99.90;;;;;;5073642;28;20209;-75
2021/11/30 02:43:55;;;;;;;15.23;7.20;;;4.10;99.90;;;;;;5073849;28;20210;-76
2021/11/30 02:46:33;;;;;;;14.37;7.80;;;4.10;99.90;;;;;;5079511;28;20202;-76
2021/11/30 02:49:02;;;;;;;13.97;7.90;;;4.10;99.90;;;;;;5077869;28;20197;-75
2021/11/30 02:51:28;;;;;;;12.80;7.80;;;4.10;99.90;;;;;;5072142;28;20736;-75
2021/11/30 02:53:59;;;;;;;13.60;8.03;;;4.10;99.90;;;;;;5073698;28;20198;-76
2021/11/30 02:56:26;;;;;;;16.13;8.47;;;4.10;99.90;;;;;;5075073;28;20221;-75
2021/11/30 02:58:53;;;;;;;15.47;9.73;;;4.10;99.90;;;;;;5078720;28;20197;-75
2021/11/30 03:01:21;;;;;;;16.27;9.53;;;4.20;99.90;;;;;;5076200;28;20206;-76
2021/11/30 03:03:47;;;;;;;19.53;11.40;;;4.20;99.90;;;;;;5078123;28;20209;-75
2021/11/30 03:06:14;;;;;;;16.30;10.47;;;4.20;99.90;;;;;;5072571;28;20561;-76
2021/11/30 03:08:42;;;;;;;15.43;10.83;;;4.20;99.90;;;;;;5074529;28;20198;-76
2021/11/30 03:11:11;;;;;;;18.57;11.67;;;4.30;99.90;;;;;;5073134;28;20201;-75
2021/11/30 03:13:37;;;;;;;17.20;11.27;;;4.30;99.90;;;;;;5078050;28;20198;-76
2021/11/30 03:16:05;;;;;;;17.50;10.83;;;4.20;99.90;;;;;;5076350;28;20195;-76
2021/11/30 03:18:35;;;;;;;15.90;10.70;;;4.20;99.90;;;;;;5076770;28;20198;-76
2021/11/30 03:21:04;;;;;;;18.90;11.47;;;4.20;99.90;;;;;;5072151;28;20203;-76
2021/11/30 03:23:31;;;;;;;16.90;10.53;;;4.20;99.90;;;;;;5074537;28;20206;-76
2021/11/30 03:25:57;;;;;;;16.73;10.70;;;4.20;99.90;;;;;;5072809;28;20206;-75
2021/11/30 03:28:26;;;;;;;15.50;9.67;;;4.20;99.90;;;;;;5075105;28;20214;-75
2021/11/30 03:31:01;;;;;;;18.00;12.30;;;4.10;99.90;;;;;;5075150;28;20208;-76
2021/11/30 03:36:12;;;;;;;17.47;10.70;;;4.00;99.90;;;;;;5072808;28;20225;-75
2021/11/30 03:38:39;;;;;;;16.57;10.73;;;3.90;99.90;;;;;;5073275;28;20198;-76
2021/11/30 03:41:06;;;;;;;19.80;10.80;;;3.80;99.90;;;;;;5074539;28;20281;-76
2021/11/30 03:43:34;;;;;;;18.57;10.73;;;3.80;99.90;;;;;;5074868;28;20237;-76
2021/11/30 03:46:01;;;;;;;14.80;10.00;;;3.80;99.90;;;;;;5075222;28;20641;-75
2021/11/30 03:48:28;;;;;;;13.13;9.30;;;3.80;99.90;;;;;;5080899;28;20230;-76
2021/11/30 03:50:56;;;;;;;14.20;8.67;;;3.80;99.90;;;;;;5071854;28;20198;-76
2021/11/30 03:53:23;;;;;;;15.90;8.70;;;3.80;99.90;;;;;;5068422;28;20211;-76
2021/11/30 03:55:50;;;;;;;15.53;8.73;;;3.80;99.90;;;;;;5074476;28;20293;-76
2021/11/30 03:58:17;;;;;;;12.83;8.17;;;3.70;99.90;;;;;;5075158;28;20225;-77
2021/11/30 04:00:45;;;;;;;12.57;7.90;;;3.70;99.90;;;;;;5073171;28;20773;-76
2021/11/30 04:03:13;;;;;;;13.17;7.57;;;3.70;99.90;;;;;;5077241;28;20198;-77
2021/11/30 04:05:39;;;;;;;12.30;7.43;;;3.60;99.90;;;;;;5071932;28;20687;-76
2021/11/30 04:08:06;;;;;;;12.63;7.33;;;3.60;99.90;;;;;;5072084;28;20680;-76
2021/11/30 04:10:33;;;;;;;11.90;7.53;;;3.60;99.90;;;;;;5071252;28;20209;-76
2021/11/30 04:13:00;;;;;;;11.43;7.43;;;3.60;99.90;;;;;;5073180;28;20565;-75
2021/11/30 04:15:27;;;;;;;8.87;5.93;;;3.50;99.90;;;;;;5075426;28;20700;-76
2021/11/30 04:17:55;;;;;;;9.57;5.67;;;3.50;99.90;;;;;;5072729;28;20198;-76
2021/11/30 04:20:22;;;;;;;9.10;6.00;;;3.50;99.90;;;;;;5074982;28;20195;-76
2021/11/30 04:22:49;;;;;;;11.40;6.80;;;3.50;99.90;;;;;;5070151;28;20202;-76
2021/11/30 04:25:16;;;;;;;12.77;7.13;;;3.40;99.90;;;;;;5068209;28;20205;-76
2021/11/30 04:27:43;;;;;;;10.93;6.90;;;3.40;99.90;;;;;;5071502;28;20593;-76
2021/11/30 04:30:12;;;;;;;14.20;8.80;;;3.40;99.90;;;;;;5076265;28;20670;-76
2021/11/30 04:32:39;;;;;;;10.77;7.10;;;3.40;99.90;;;;;;5070187;28;20202;-76
2021/11/30 04:35:09;;;;;;;10.90;6.73;;;3.30;99.90;;;;;;5076322;28;20202;-76
2021/11/30 04:37:37;;;;;;;11.20;6.10;;;3.30;99.90;;;;;;5071200;28;20206;-76
2021/11/30 04:40:05;;;;;;;12.03;6.40;;;3.30;99.90;;;;;;5072108;28;20252;-76
2021/11/30 04:42:32;;;;;;;8.97;5.67;;;3.20;99.90;;;;;;5071008;28;20222;-76
2021/11/30 04:45:04;;;;;;;10.50;6.87;;;3.10;99.90;;;;;;5071893;28;20556;-76
2021/11/30 04:47:34;;;;;;;8.80;5.40;;;3.10;99.90;;;;;;5073130;28;20226;-76
2021/11/30 04:50:03;;;;;;;6.10;4.03;;;3.00;99.90;;;;;;5061366;28;20652;-76
2021/11/30 04:52:32;;;;;;;8.17;5.43;;;3.00;99.90;;;;;;5056108;28;20217;-76
2021/11/30 04:55:00;;;;;;;7.77;4.97;;;2.90;99.90;;;;;;5068544;28;20209;-76
2021/11/30 04:57:27;;;;;;;9.70;5.83;;;2.90;99.90;;;;;;5068691;28;20199;-76
2021/11/30 04:59:54;;;;;;;8.93;5.83;;;2.80;99.90;;;;;;5071387;28;20211;-76
2021/11/30 05:02:22;;;;;;;7.60;5.17;;;2.80;99.90;;;;;;5072687;28;20207;-76
2021/11/30 05:04:49;;;;;;;7.60;5.17;;;2.80;99.90;;;;;;5066955;28;20217;-76
2021/11/30 05:07:17;;;;;;;6.60;4.40;;;2.80;99.90;;;;;;5072914;28;20222;-76
2021/11/30 05:09:46;;;;;;;5.63;4.10;;;2.80;99.90;;;;;;5076845;28;20212;-76
2021/11/30 05:12:13;;;;;;;7.57;4.50;;;2.80;99.90;;;;;;5071284;28;20198;-76
2021/11/30 05:14:40;;;;;;;5.60;3.80;;;2.80;99.90;;;;;;5073149;28;20202;-76
2021/11/30 05:17:07;;;;;;;5.93;3.53;;;2.80;99.90;;;;;;5063987;28;20203;-76
2021/11/30 05:19:34;;;;;;;6.17;3.40;;;2.80;99.90;;;;;;5057918;28;20669;-75
2021/11/30 05:22:01;;;;;;;7.27;4.20;;;2.80;99.90;;;;;;5070279;28;20194;-75
2021/11/30 05:24:28;;;;;;;5.63;4.07;;;2.80;99.90;;;;;;5072439;28;20202;-75
2021/11/30 05:26:57;;;;;;;4.97;3.50;;;2.80;99.90;;;;;;5066917;28;20668;-75
2021/11/30 05:29:24;;;;;;;3.20;2.73;;;2.80;99.90;;;;;;5070313;28;20295;-75
2021/11/30 05:31:51;;;;;;;4.60;3.63;;;2.80;99.90;;;;;;5071690;28;20637;-75
2021/11/30 05:34:17;;;;;;;6.53;4.00;;;2.90;99.90;;;;;;5071771;28;20210;-75
2021/11/30 05:36:44;;;;;;;5.60;3.87;;;2.90;99.90;;;;;;5068697;28;20646;-75
2021/11/30 05:39:11;;;;;;;6.07;3.67;;;2.90;99.90;;;;;;5067940;28;20202;-75
2021/11/30 05:41:38;;;;;;;5.50;3.93;;;2.90;99.90;;;;;;5068995;28;20228;-75
2021/11/30 05:44:07;;;;;;;6.83;3.80;;;2.90;99.90;;;;;;5052711;28;20206;-75
2021/11/30 05:46:36;;;;;;;4.90;3.77;;;3.00;99.90;;;;;;5053743;28;20601;-75
2021/11/30 05:49:04;;;;;;;5.90;3.47;;;3.00;99.90;;;;;;5071838;28;20680;-75
2021/11/30 05:51:31;;;;;;;6.50;4.07;;;3.00;99.90;;;;;;5070400;28;20202;-75
2021/11/30 05:53:58;;;;;;;4.77;3.33;;;3.00;99.90;;;;;;5072452;28;20226;-75
2021/11/30 05:56:25;;;;;;;9.57;4.70;;;3.10;99.90;;;;;;5071757;28;20206;-75
2021/11/30 05:58:52;;;;;;;9.00;5.30;;;3.10;99.90;;;;;;5052902;28;20205;-75
2021/11/30 06:01:26;;;;;;;6.40;4.27;;;3.10;99.90;;;;;;5061727;28;20209;-75
2021/11/30 06:04:00;;;;;;;7.27;4.43;;;3.10;99.90;;;;;;5052274;28;20210;-75
2021/11/30 06:06:32;;;;;;;6.17;4.67;;;3.20;99.90;;;;;;5052066;28;20215;-75
2021/11/30 06:09:00;;;;;;;7.97;5.17;;;3.20;99.90;;;;;;5070852;28;20287;-75
2021/11/30 06:11:27;;;;;;;7.17;4.70;;;3.20;99.90;;;;;;5071133;28;20383;-75
2021/11/30 06:13:54;;;;;;;8.47;5.53;;;3.30;99.90;;;;;;5053784;28;20203;-75
2021/11/30 06:16:22;;;;;;;11.20;5.30;;;3.30;99.90;;;;;;5050528;28;20203;-75
2021/11/30 06:18:49;;;;;;;8.40;5.47;;;3.30;99.90;;;;;;5068563;28;20206;-75
2021/11/30 06:21:17;;;;;;;7.73;5.57;;;3.40;99.90;;;;;;5070610;28;20210;-75
2021/11/30 06:23:44;;;;;;;7.87;4.93;;;3.40;99.90;;;;;;5062955;28;20547;-75
2021/11/30 06:26:12;;;;;;;6.03;4.50;;;3.40;99.90;;;;;;5068563;28;20492;-75
2021/11/30 06:28:39;;;;;;;6.50;5.00;;;3.50;99.90;;;;;;5071366;28;20226;-75
2021/11/30 06:31:07;;;;;;;7.07;4.77;;;3.50;99.90;;;;;;5068536;28;20190;-75
2021/11/30 06:33:36;;;;;;;5.90;4.10;;;3.60;99.90;;;;;;5071194;28;20305;-75
2021/11/30 06:36:04;;;;;;;3.77;3.40;;;3.60;99.90;;;;;;5059087;28;20562;-75
2021/11/30 06:38:31;;;;;;;3.80;3.10;;;3.70;99.90;;;;;;5055247;28;20206;-75
2021/11/30 06:40:58;;;;;;;2.87;2.67;;;3.80;99.90;;;;;;5068969;28;20213;-69
2021/11/30 06:43:25;;;;;;;3.03;2.63;;;3.80;99.90;;;;;;5070531;28;20202;-68
2021/11/30 06:45:52;;;;;;;3.47;2.70;;;3.90;99.90;;;;;;5062289;28;20566;-69
2021/11/30 06:48:20;;;;;;;3.80;3.00;;;3.90;99.90;;;;;;5051566;28;20604;-69
2021/11/30 06:50:49;;;;;;;3.33;2.83;;;3.90;99.90;;;;;;5058541;28;20198;-68
2021/11/30 06:53:16;;;;;;;3.53;2.97;;;4.00;99.90;;;;;;5070681;28;20727;-69
2021/11/30 06:55:43;;;;;;;3.37;2.90;;;4.00;99.90;;;;;;5064644;28;20213;-69
2021/11/30 06:58:10;;;;;;;3.40;2.97;;;4.00;99.90;;;;;;5052748;28;20195;-69
2021/11/30 07:00:37;;;;;;;2.73;2.50;;;4.10;99.90;;;;;;5061952;28;20712;-68
2021/11/30 07:03:05;;;;;;;3.33;2.40;;;4.10;99.90;;;;;;5067272;28;20284;-68
2021/11/30 07:05:35;;;;;;;3.17;2.70;;;4.10;99.90;;;;;;5051726;28;20211;-69
2021/11/30 07:08:19;;;;;;;2.60;2.40;;;4.10;99.90;;;;;;5055815;28;20227;-69
2021/11/30 07:10:48;;;;;;;2.50;2.30;;;4.10;99.90;;;;;;5049229;28;20268;-69
2021/11/30 07:13:35;;;;;;;3.07;2.40;;;4.20;99.90;;;;;;5052258;28;20282;-69
2021/11/30 07:16:04;;;;;;;2.20;2.10;;;4.20;99.90;;;;;;5064924;28;20199;-69
2021/11/30 07:18:32;;;;;;;2.93;2.20;;;4.20;99.90;;;;;;5050837;28;20556;-69
2021/11/30 07:21:01;;;;;;;2.30;2.10;;;4.20;99.90;;;;;;5056739;28;20202;-68
2021/11/30 07:23:30;;;;;;;2.70;2.50;;;4.20;99.90;;;;;;5071254;28;20644;-69
2021/11/30 07:25:57;;;;;;;3.23;2.70;;;4.10;99.90;;;;;;5070004;28;20205;-69
2021/11/30 07:28:29;;;;;;;3.73;2.80;;;4.20;99.90;;;;;;5073820;28;20224;-69
2021/11/30 07:30:56;;;;;;;3.43;2.63;;;4.20;99.90;;;;;;5055179;28;20650;-69
2021/11/30 07:33:23;;;;;;;2.77;2.57;;;4.20;99.90;;;;;;5055051;28;20187;-69
2021/11/30 07:35:50;;;;;;;4.60;2.77;;;4.20;99.90;;;;;;5070872;28;20259;-69
2021/11/30 07:38:18;;;;;;;8.47;3.03;;;4.20;99.90;;;;;;5074634;28;20721;-69
2021/11/30 07:40:46;;;;;;;2.80;2.60;;;4.30;99.90;;;;;;5057457;28;20293;-69
2021/11/30 07:43:13;;;;;;;2.97;2.67;;;4.30;99.90;;;;;;5069604;28;20212;-69
2021/11/30 07:45:40;;;;;;;3.47;2.50;;;4.30;99.90;;;;;;5059111;28;20283;-69
2021/11/30 07:48:07;;;;;;;2.40;2.20;;;4.30;99.90;;;;;;5055418;28;20219;-69
2021/11/30 07:50:33;;;;;;;3.90;2.73;;;4.40;99.90;;;;;;5074912;28;20204;-68
2021/11/30 07:53:00;;;;;;;2.67;2.47;;;4.40;99.90;;;;;;5081483;28;20210;-69
2021/11/30 07:55:27;;;;;;;2.47;2.27;;;4.50;99.90;;;;;;5071834;28;20230;-69
2021/11/30 07:57:56;;;;;;;2.43;2.23;;;4.50;99.90;;;;;;5055418;28;20231;-69
2021/11/30 08:00:22;;;;;;;2.60;2.40;;;4.50;99.90;;;;;;5053302;28;20199;-69
2021/11/30 08:02:49;;;;;;;2.83;2.50;;;4.50;99.90;;;;;;5070242;28;20206;-69
2021/11/30 08:05:16;;;;;;;2.70;2.50;;;4.60;99.90;;;;;;5073003;28;20229;-69
2021/11/30 08:07:43;;;;;;;3.20;2.40;;;4.70;99.90;;;;;;5054853;28;20210;-69
2021/11/30 08:10:14;;;;;;;2.60;2.30;;;4.70;99.90;;;;;;5069414;28;20226;-69
2021/11/30 08:12:41;;;;;;;2.60;2.40;;;4.70;99.90;;;;;;5058742;28;20264;-69
2021/11/30 08:15:11;;;;;;;2.50;2.30;;;4.80;99.90;;;;;;5062532;28;20239;-69
2021/11/30 08:17:38;;;;;;;2.53;2.33;;;4.80;99.90;;;;;;5054825;28;20195;-69
2021/11/30 08:20:08;;;;;;;2.60;2.40;;;4.80;99.90;;;;;;5066993;28;20199;-69
2021/11/30 08:22:35;;;;;;;3.00;2.70;;;4.90;99.90;;;;;;5070905;28;20206;-69
2021/11/30 08:25:02;;;;;;;3.10;2.80;;;4.90;99.90;;;;;;5073938;28;20297;-69
2021/11/30 08:27:29;;;;;;;3.43;3.13;;;5.00;99.90;;;;;;5066833;28;20569;-69
2021/11/30 08:29:56;;;;;;;2.93;2.63;;;5.00;99.90;;;;;;5054167;28;20703;-69
2021/11/30 08:32:24;;;;;;;3.43;2.73;;;5.00;99.90;;;;;;5060966;28;20198;-69
2021/11/30 08:34:53;;;;;;;3.40;3.10;;;5.10;99.90;;;;;;5074123;28;20231;-69
2021/11/30 08:37:21;;;;;;;3.83;3.43;;;5.10;99.90;;;;;;5071870;28;20205;-69
2021/11/30 08:39:49;;;;;;;4.13;3.73;;;5.10;99.90;;;;;;5073002;28;20206;-69
2021/11/30 08:42:17;;;;;;;5.03;4.00;;;5.10;99.90;;;;;;5065918;28;20244;-69
2021/11/30 08:44:44;;;;;;;4.97;4.10;;;5.20;99.90;;;;;;5053885;28;20226;-69
2021/11/30 08:47:14;;;;;;;6.33;4.53;;;5.30;99.90;;;;;;5058870;28;20229;-69
2021/11/30 08:49:42;;;;;;;5.57;4.40;;;5.30;99.90;;;;;;5071145;28;20220;-75
2021/11/30 08:52:12;;;;;;;6.07;5.13;;;5.40;99.90;;;;;;5052817;28;20294;-75
2021/11/30 08:54:40;;;;;;;5.50;4.47;;;5.40;99.90;;;;;;5054981;28;20202;-75
2021/11/30 08:57:07;;;;;;;4.83;4.33;;;5.40;99.90;;;;;;5078765;28;20648;-76
2021/11/30 08:59:35;;;;;;;5.27;4.50;;;5.50;99.90;;;;;;5072966;28;20198;-75
2021/11/30 09:02:02;;;;;;;4.97;4.30;;;5.50;99.90;;;;;;5072730;28;20576;-75
2021/11/30 09:04:29;;;;;;;4.93;4.40;;;5.60;99.90;;;;;;5070833;28;20740;-75
2021/11/30 09:06:57;;;;;;;5.20;4.50;;;5.60;99.90;;;;;;5065614;28;20565;-75
2021/11/30 09:09:24;;;;;;;5.17;4.63;;;5.60;99.90;;;;;;5072075;28;20214;-75
2021/11/30 09:11:51;;;;;;;5.63;4.93;;;5.60;99.90;;;;;;5071281;28;20213;-75
2021/11/30 09:14:21;;;;;;;4.80;4.30;;;5.70;99.90;;;;;;5071815;28;20242;-75
2021/11/30 09:16:48;;;;;;;5.57;4.27;;;5.70;99.90;;;;;;5072480;28;20229;-75
2021/11/30 09:19:15;;;;;;;4.77;4.17;;;5.80;99.90;;;;;;5071528;28;20198;-75
2021/11/30 09:21:42;;;;;;;5.47;4.40;;;5.80;99.90;;;;;;5071359;28;20305;-75
2021/11/30 09:24:10;;;;;;;6.50;4.60;;;5.90;99.90;;;;;;5068422;28;20649;-75
2021/11/30 09:26:38;;;;;;;5.10;4.30;;;6.00;99.90;;;;;;5071264;28;20210;-76
2021/11/30 09:29:06;;;;;;;5.63;4.67;;;6.00;99.90;;;;;;5071839;28;20218;-75
2021/11/30 09:31:33;;;;;;;6.00;4.10;;;6.00;99.90;;;;;;5066915;28;20203;-75
2021/11/30 09:34:02;;;;;;;5.80;4.23;;;6.10;99.90;;;;;;5072207;28;20254;-75
2021/11/30 09:36:31;;;;;;;5.10;4.10;;;6.10;99.90;;;;;;5070339;28;20542;-75
2021/11/30 09:38:58;;;;;;;4.87;3.43;;;6.20;99.90;;;;;;5052933;28;20551;-75
2021/11/30 09:41:27;;;;;;;3.73;3.00;;;6.40;99.90;;;;;;5070621;28;20561;-76
2021/11/30 09:43:54;;;;;;;3.40;3.10;;;6.40;99.90;;;;;;5071891;28;20209;-75
2021/11/30 09:46:22;;;;;;;4.50;3.20;;;6.50;99.90;;;;;;5071541;28;20206;-71
2021/11/30 09:48:49;;;;;;;2.97;2.43;;;6.50;99.90;;;;;;5072245;28;20218;-75
2021/11/30 09:51:16;;;;;;;3.07;2.70;;;6.50;99.90;;;;;;5071575;28;20203;-75
2021/11/30 09:53:43;;;;;;;2.90;2.40;;;6.50;99.90;;;;;;5080482;28;20206;-75
2021/11/30 09:56:10;;;;;;;2.13;1.97;;;6.50;99.90;;;;;;5075756;28;20214;-75
2021/11/30 09:58:38;;;;;;;1.97;1.87;;;6.50;99.90;;;;;;5088350;28;20217;-75
2021/11/30 10:01:10;;;;;;;3.23;2.30;;;6.50;99.90;;;;;;5077954;28;20213;-75
2021/11/30 10:03:37;;;;;;;2.00;1.80;;;6.60;99.90;;;;;;5086941;28;20550;-75
2021/11/30 10:06:04;;;;;;;3.93;1.97;;;6.50;99.90;;;;;;5078503;28;20210;-74
2021/11/30 10:08:33;;;;;;;1.77;1.67;;;6.50;99.90;;;;;;5069882;28;20225;-75
2021/11/30 10:11:01;;;;;;;3.57;2.10;;;6.50;99.90;;;;;;5070413;28;20209;-75
2021/11/30 10:13:29;;;;;;;2.10;1.80;;;6.50;99.90;;;;;;5069295;28;20560;-75
2021/11/30 10:16:00;;;;;;;1.90;1.60;;;6.50;99.90;;;;;;5070412;28;20667;-76
2021/11/30 10:18:29;;;;;;;2.87;1.50;;;6.50;99.90;;;;;;5065162;28;20218;-75
2021/11/30 10:21:14;;;;;;;1.67;1.57;;;6.50;99.90;;;;;;5057877;28;20203;-75
2021/11/30 10:23:46;;;;;;;1.77;1.67;;;6.60;99.90;;;;;;5058079;28;20627;-75
2021/11/30 10:26:13;;;;;;;2.80;1.87;;;6.50;99.90;;;;;;5068561;28;20232;-75
2021/11/30 10:28:40;;;;;;;2.63;2.33;;;6.50;99.90;;;;;;5070650;28;20663;-75
2021/11/30 10:31:11;;;;;;;2.23;1.80;;;6.50;99.90;;;;;;5070003;28;20575;-75
2021/11/30 10:33:38;;;;;;;3.10;2.00;;;6.50;99.90;;;;;;5069679;28;20652;-75
2021/11/30 10:36:05;;;;;;;2.00;1.73;;;6.60;99.90;;;;;;5071718;28;20202;-75
2021/11/30 10:38:34;;;;;;;2.73;1.70;;;6.60;99.90;;;;;;5069273;28;20802;-75
2021/11/30 10:41:15;;;;;;;1.93;1.70;;;6.70;99.90;;;;;;5071203;28;20187;-76
2021/11/30 10:43:50;;;;;;;1.20;1.10;;;6.70;99.90;;;;;;5070394;28;20206;-76
2021/11/30 10:46:23;;;;;;;3.60;1.00;;;6.80;99.90;;;;;;5070954;28;20200;-76
2021/11/30 10:48:50;;;;;;;1.70;0.80;;;6.90;99.90;;;;;;5072794;28;20237;-75
2021/11/30 10:51:17;;;;;;;1.87;0.67;;;6.90;99.90;;;;;;5070121;28;20206;-76
2021/11/30 10:53:46;;;;;;;0.70;0.70;;;7.00;99.90;;;;;;5070245;28;20208;-75
2021/11/30 10:56:14;;;;;;;2.30;0.67;;;7.00;99.90;;;;;;5071866;28;20237;-75
2021/11/30 10:58:43;;;;;;;1.70;0.70;;;7.10;99.90;;;;;;5074354;28;20202;-75
2021/11/30 11:01:13;;;;;;;2.30;0.67;;;7.10;99.90;;;;;;5073467;28;20202;-76
2021/11/30 11:03:42;;;;;;;3.93;1.30;;;7.10;99.90;;;;;;5081317;28;20569;-75
2021/11/30 11:08:55;;;;;;;2.70;1.10;;;7.10;99.90;;;;;;5071953;28;20688;-75
2021/11/30 11:11:24;;;;;;;2.83;1.37;;;7.10;99.90;;;;;;5074873;28;20238;-76
2021/11/30 11:13:51;;;;;;;4.13;1.00;;;7.20;99.90;;;;;;5078381;28;20202;-75
2021/11/30 11:16:25;;;;;;;3.93;0.90;;;7.30;99.90;;;;;;5070170;28;20209;-75
2021/11/30 11:18:56;;;;;;;4.37;1.27;;;7.30;99.90;;;;;;5084468;28;20292;-75
2021/11/30 11:21:27;;;;;;;6.43;1.83;;;7.40;99.90;;;;;;5072229;28;20202;-75
2021/11/30 11:24:04;;;;;;;8.17;1.53;;;7.40;99.90;;;;;;5070771;28;20439;-75
2021/11/30 11:26:34;;;;;;;5.93;1.37;;;7.50;99.90;;;;;;5070345;28;20213;-75
2021/11/30 11:29:04;;;;;;;9.07;2.37;;;7.50;99.90;;;;;;5069162;28;20198;-75
2021/11/30 11:31:31;;;;;;;4.00;1.20;;;7.60;99.90;;;;;;5076369;28;20566;-76
2021/11/30 11:34:01;;;;;;;8.53;1.43;;;7.70;99.90;;;;;;5080835;28;20215;-75
2021/11/30 11:36:29;;;;;;;5.20;1.50;;;7.80;99.90;;;;;;5070365;28;20208;-76
2021/11/30 11:38:56;;;;;;;9.93;2.70;;;7.80;99.90;;;;;;5055310;28;20217;-76
2021/11/30 11:41:23;;;;;;;6.60;1.70;;;7.90;99.90;;;;;;5070014;28;20687;-76
2021/11/30 11:43:51;;;;;;;7.03;1.37;;;8.00;99.90;;;;;;5057785;28;20217;-75
2021/11/30 11:46:19;;;;;;;6.40;2.27;;;8.00;99.90;;;;;;5069750;28;20203;-75
2021/11/30 11:48:49;;;;;;;8.77;2.50;;;8.00;99.90;;;;;;5070302;28;20210;-75
2021/11/30 11:51:17;;;;;;;7.77;1.53;;;8.00;99.90;;;;;;5069512;28;20246;-75
2021/11/30 11:53:53;;;;;;;10.17;1.60;;;8.10;99.90;;;;;;5080418;28;20211;-75
2021/11/30 11:56:23;;;;;;;4.90;1.77;;;8.10;99.90;;;;;;5068402;28;20206;-75
2021/11/30 11:58:52;;;;;;;9.53;2.27;;;8.00;99.90;;;;;;5050017;28;20680;-75
2021/11/30 12:01:21;;;;;;;4.80;2.13;;;8.00;99.90;;;;;;5061422;28;20201;-75
2021/11/30 12:03:51;;;;;;;9.63;2.30;;;8.10;99.90;;;;;;5068466;28;20754;-75
2021/11/30 12:06:22;;;;;;;7.77;1.97;;;8.10;99.90;;;;;;5069641;28;20228;-75
2021/11/30 12:09:12;;;;;;;10.93;2.50;;;8.10;99.90;;;;;;5068582;28;20206;-76
2021/11/30 12:11:41;;;;;;;12.87;2.43;;;8.10;99.90;;;;;;5069878;28;20716;-76
2021/11/30 12:14:12;;;;;;;6.53;2.00;;;8.20;99.90;;;;;;5067207;28;20209;-75
2021/11/30 12:17:11;;;;;;;8.03;1.90;;;8.20;99.90;;;;;;5066887;28;20547;-75
2021/11/30 12:19:44;;;;;;;12.23;2.00;;;8.20;99.90;;;;;;5068735;28;20211;-76
2021/11/30 12:22:15;;;;;;;7.37;2.00;;;8.20;99.90;;;;;;5067787;28;20750;-75
2021/11/30 12:24:45;;;;;;;8.03;2.70;;;8.30;99.90;;;;;;5067910;28;20572;-76
2021/11/30 12:27:41;;;;;;;8.73;2.57;;;8.30;99.90;;;;;;5050273;28;20576;-75
2021/11/30 12:30:09;;;;;;;8.47;2.53;;;8.20;99.90;;;;;;5065062;28;20218;-75
2021/11/30 12:32:38;;;;;;;10.37;2.27;;;8.30;99.90;;;;;;5077080;28;20285;-75
2021/11/30 12:35:09;;;;;;;16.23;3.60;;;8.30;99.90;;;;;;5071843;28;20237;-75
2021/11/30 12:37:38;;;;;;;6.70;2.07;;;8.30;99.90;;;;;;5071978;28;20664;-76
2021/11/30 12:40:11;;;;;;;11.33;2.73;;;8.30;99.90;;;;;;5070603;28;20205;-75
2021/11/30 12:42:57;;;;;;;13.50;2.83;;;8.30;99.90;;;;;;5068764;28;20217;-75
2021/11/30 12:45:44;;;;;;;7.90;2.20;;;8.20;99.90;;;;;;5070201;28;20567;-76
2021/11/30 12:48:16;;;;;;;13.93;3.87;;;8.20;99.90;;;;;;5073051;28;20258;-76
2021/11/30 12:50:43;;;;;;;8.27;2.33;;;8.10;99.90;;;;;;5071631;28;20702;-76
2021/11/30 12:53:11;;;;;;;7.97;2.40;;;8.10;99.90;;;;;;5072465;28;20548;-75
2021/11/30 12:55:44;;;;;;;8.60;2.20;;;8.00;99.90;;;;;;5074292;28;20228;-75
2021/11/30 12:58:38;;;;;;;10.27;2.57;;;7.90;99.90;;;;;;5079815;28;20708;-75
2021/11/30 13:01:13;;;;;;;7.40;2.47;;;7.80;99.90;;;;;;5072639;28;20198;-75
2021/11/30 13:03:40;;;;;;;11.30;2.27;;;7.70;99.90;;;;;;5068668;28;20194;-75